Latest Weather Observations for Sydney - Observatory Hill

IDN60801

Issued at 5:05 pm EST Monday 21 April 2014 (issued every 30 minutes, with the page automatically refreshed every 10 minutes)

About weather observations | Map of weather stations | Latest weather observations for NSW | Other Formats
Station Details ID: 066062 Name: SYDNEY (OBSERVATORY HILL) Lat: -33.86 Lon: 151.21 Height: 39.0 m
Data from the previous 72 hours. | See also: Recent months at Sydney - Observatory Hill

* Apparent temperature (App Temp) for Sydney - Observatory Hill is calculated using temperature observations collected at Sydney - Observatory Hill and wind observations collected at Fort Denison, as wind observations are not currently provided for Sydney - Observatory Hill.

Date/Time
EST
Temp
°C
App
Temp
°C
Dew
Point
Rel
Hum
%
Delta-T
°C
Wind Press
QNH
hPa
Press
MSL
hPa
Rain
since 9 am
mm
Dir
 
Spd
km/h
Gust
km/h
Spd
kts
Gust
kts
21/05:00pm 20.5 18.5 10.3 52 5.5 - 11 - 6 - 1018.7 1018.7 0.0
21/04:30pm 21.0 18.9 9.9 49 6.0 - 11 - 6 - 1018.7 - 0.0
21/04:00pm 21.5 19.5 10.0 48 6.2 - 11 - 6 - 1018.6 1018.6 0.0
21/03:30pm 22.3 19.8 8.4 41 7.3 - 11 - 6 - 1018.5 - 0.0
21/03:00pm 24.4 20.7 6.2 31 9.3 - 15 - 8 - 1018.5 1018.5 0.0
21/02:30pm 24.6 22.7 7.7 34 8.9 - 7 - 4 - 1018.5 - 0.0
21/02:00pm 24.4 23.2 8.0 35 8.7 - 4 - 2 - 1018.6 1018.6 0.0
21/01:30pm 24.0 22.1 6.7 33 9.0 - 6 - 3 - 1018.8 - 0.0
21/01:00pm 23.9 21.9 7.1 34 8.7 - 7 - 4 - 1019.1 1019.1 0.0
21/12:30pm 23.0 21.0 8.7 40 7.6 - 9 - 5 - 1019.5 - 0.0
21/12:00pm 21.9 19.2 7.3 39 7.5 - 11 - 6 - 1020.0 1019.9 0.0
21/11:30am 20.3 17.2 7.3 43 6.7 - 13 - 7 - 1020.5 - 0.0
21/11:00am 18.9 15.3 6.7 45 6.1 - 15 - 8 - 1020.8 1020.7 0.0
21/10:30am 17.8 14.0 6.0 46 5.8 - 15 - 8 - 1020.9 - 0.0
21/10:00am 16.9 12.3 5.8 48 5.4 - 19 - 10 - 1021.0 1020.9 0.0
21/09:30am 16.4 11.8 5.4 48 5.3 - 19 - 10 - 1021.3 - 0.0
21/09:00am 15.9 11.0 4.9 48 5.2 - 20 - 11 - 1021.2 1021.1 0.0
21/08:30am 15.3 9.2 4.7 49 5.0 - 26 - 14 - 1021.2 - 0.0
21/08:00am 15.4 9.7 5.0 50 4.9 - 24 - 13 - 1021.1 1021.0 0.0
21/07:30am 14.9 9.7 5.7 54 4.4 - 22 - 12 - 1020.8 - 0.0
21/07:00am 13.9 9.4 6.0 59 3.8 - 19 - 10 - 1020.3 1020.2 0.0
21/06:30am 13.3 8.5 5.7 60 3.6 - 20 - 11 - 1020.0 - 0.0
21/06:00am 13.6 8.0 5.5 58 3.8 - 24 - 13 - 1019.9 1019.8 0.0
21/05:30am 13.5 8.0 5.9 60 3.6 - 24 - 13 - 1019.4 - 0.0
21/05:00am 13.7 8.8 5.3 57 3.9 - 20 - 11 - 1019.1 1019.1 0.0
21/04:30am 14.0 9.2 5.4 56 4.1 - 20 - 11 - 1018.8 - 0.0
21/04:00am 14.2 9.2 4.8 53 4.4 - 20 - 11 - 1018.5 1018.5 0.0
21/03:30am 14.5 9.6 5.0 53 4.5 - 20 - 11 - 1018.4 - 0.0
21/03:00am 14.6 9.9 5.1 53 4.5 - 19 - 10 - 1018.3 1018.2 0.0
21/02:30am 15.1 10.4 5.3 52 4.6 - 19 - 10 - 1018.2 - 0.0
21/02:00am 15.1 10.9 5.6 53 4.5 - 17 - 9 - 1018.3 1018.2 0.0
21/01:30am 15.2 11.1 6.0 54 4.4 - 17 - 9 - 1018.3 - 0.0
21/01:00am 15.5 11.8 6.5 55 4.4 - 15 - 8 - 1018.1 1018.0 0.0
21/12:30am 15.8 11.5 7.0 56 4.3 - 19 - 10 - 1018.0 - 0.0
21/12:00am 16.1 12.7 7.8 58 4.2 - 15 - 8 - 1018.0 1017.9 0.0
 
Date/Time
EST
Temp
°C
App
Temp
°C
Dew
Point
Rel
Hum
%
Delta-T
°C
Wind Press
QNH
hPa
Press
MSL
hPa
Rain
since 9 am
mm
Dir
 
Spd
km/h
Gust
km/h
Spd
kts
Gust
kts
20/11:30pm 16.6 12.9 10.2 66 3.4 - 20 - 11 - 1017.7 - 0.0
20/11:00pm 17.6 15.4 13.3 76 2.4 - 17 - 9 - 1017.5 1017.4 0.0
20/10:30pm 18.3 16.2 13.6 74 2.7 - 17 - 9 - 1017.4 - 0.0
20/10:00pm 19.8 20.2 13.7 68 3.5 - 4 - 2 - 1017.2 1017.1 0.0
20/09:30pm 19.7 20.3 14.3 71 3.1 - 4 - 2 - 1017.0 - 0.0
20/09:00pm 19.8 20.5 14.6 72 3.0 - 4 - 2 - 1016.7 1016.6 0.0
20/08:30pm 19.8 20.5 14.4 71 3.1 - 4 - 2 - 1016.6 - 0.0
20/08:00pm 19.8 20.6 13.7 68 3.5 - 2 - 1 - 1016.5 1016.4 0.0
20/07:30pm 20.2 20.7 14.1 68 3.5 - 4 - 2 - 1016.1 - 0.0
20/07:00pm 20.4 20.6 14.1 67 3.6 - 6 - 3 - 1015.9 1015.8 0.0
20/06:30pm 20.5 20.5 14.2 67 3.7 - 7 - 4 - 1015.6 - 0.0
20/06:00pm 20.6 19.8 14.0 66 3.8 - 11 - 6 - 1015.5 1015.4 0.0
20/05:30pm 20.8 19.7 14.2 66 3.8 - 13 - 7 - 1015.2 - 0.0
20/05:00pm 20.9 18.9 13.8 64 4.1 - 17 - 9 - 1014.9 1014.8 0.0
20/04:30pm 21.2 18.7 13.4 61 4.5 - 19 - 10 - 1014.8 - 0.0
20/04:00pm 21.4 19.6 13.3 60 4.7 - 15 - 8 - 1014.7 1014.6 0.0
20/03:30pm 21.8 19.5 12.9 57 5.1 - 17 - 9 - 1014.6 - 0.0
20/03:00pm 21.9 19.5 12.7 56 5.2 - 17 - 9 - 1014.8 1014.7 0.0
20/02:30pm 21.8 19.4 12.6 56 5.2 - 17 - 9 - 1014.8 - 0.0
20/02:00pm 21.3 19.2 12.4 57 5.0 - 15 - 8 - 1015.0 1014.9 0.0
20/01:30pm 21.9 19.3 11.9 53 5.6 - 17 - 9 - 1015.0 - 0.0
20/01:00pm 21.7 19.6 11.1 51 5.9 - 13 - 7 - 1015.3 1015.2 0.0
20/12:30pm 22.3 21.4 10.8 48 6.3 - 6 - 3 - 1015.8 - 0.0
20/12:00pm 22.8 22.2 10.3 45 6.9 - 4 - 2 - 1016.4 1016.3 0.0
20/11:30am 21.5 21.0 10.9 51 5.8 - 4 - 2 - 1017.1 - 0.0
20/11:00am 19.7 18.2 10.4 55 5.0 - 9 - 5 - 1017.5 1017.4 0.0
20/10:30am 18.6 16.6 10.2 58 4.5 - 11 - 6 - 1017.9 - 0.0
20/10:00am 17.9 15.7 9.3 57 4.5 - 11 - 6 - 1018.1 1018.0 0.0
20/09:30am 17.1 14.4 9.0 59 4.2 - 13 - 7 - 1018.3 - 0.0
20/09:00am 16.3 12.8 8.8 61 3.8 - 17 - 9 - 1018.4 1018.4 0.0
20/08:30am 15.5 11.5 8.3 62 3.6 - 19 - 10 - 1018.4 - 0.0
20/08:00am 15.0 10.7 8.0 63 3.5 - 20 - 11 - 1018.4 1018.4 0.0
20/07:30am 13.7 9.5 8.1 69 2.8 - 20 - 11 - 1017.9 - 0.0
20/07:00am 13.4 9.8 8.3 71 2.5 - 17 - 9 - 1017.7 1017.6 0.0
20/06:30am 13.4 9.7 9.3 76 2.1 - 19 - 10 - 1017.6 - 0.0
20/06:00am 13.4 10.2 8.3 71 2.5 - 15 - 8 - 1017.1 1017.0 0.0
20/05:30am 13.4 10.2 8.3 71 2.5 - 15 - 8 - 1016.8 - 0.0
20/05:00am 13.4 10.2 8.3 71 2.5 - 15 - 8 - 1016.9 1016.8 0.0
20/04:30am 13.8 11.3 8.4 70 2.7 - 11 - 6 - 1016.9 - 0.0
20/04:00am 13.8 10.5 8.0 68 2.9 - 15 - 8 - 1016.7 1016.6 0.0
20/03:30am 14.0 10.7 8.2 68 2.9 - 15 - 8 - 1016.9 - 0.0
20/03:00am 13.9 10.2 7.9 67 3.0 - 17 - 9 - 1017.0 1016.9 0.0
20/02:30am 13.9 10.5 7.7 66 3.1 - 15 - 8 - 1017.0 - 0.0
20/02:00am 14.4 10.9 8.6 68 2.9 - 17 - 9 - 1017.2 1017.1 0.0
20/01:30am 14.3 11.3 7.8 65 3.2 - 13 - 7 - 1017.4 - 0.0
20/01:00am 14.6 10.8 7.6 63 3.5 - 17 - 9 - 1017.6 1017.5 0.0
20/12:30am 15.0 11.5 7.3 60 3.8 - 15 - 8 - 1017.7 - 0.0
20/12:00am 15.7 12.7 7.5 58 4.1 - 13 - 7 - 1017.9 1017.8 0.0
 
Date/Time
EST
Temp
°C
App
Temp
°C
Dew
Point
Rel
Hum
%
Delta-T
°C
Wind Press
QNH
hPa
Press
MSL
hPa
Rain
since 9 am
mm
Dir
 
Spd
km/h
Gust
km/h
Spd
kts
Gust
kts
19/11:30pm 15.6 11.5 7.9 60 3.9 - 19 - 10 - 1018.1 - 0.0
19/11:00pm 16.0 12.2 7.7 58 4.2 - 17 - 9 - 1018.0 1017.9 0.0
19/10:30pm 16.3 12.0 8.0 58 4.2 - 20 - 11 - 1018.2 - 0.0
19/10:00pm 16.4 12.2 8.1 58 4.2 - 20 - 11 - 1018.2 1018.1 0.0
19/09:30pm 16.6 13.0 8.3 58 4.2 - 17 - 9 - 1018.2 - 0.0
19/09:00pm 17.1 13.5 8.5 57 4.4 - 17 - 9 - 1018.0 1017.9 0.0
19/08:30pm 17.6 16.1 9.0 57 4.5 - 7 - 4 - 1017.7 - 0.0
19/08:00pm 17.9 16.2 8.5 54 4.8 - 7 - 4 - 1017.4 1017.3 0.0
19/07:30pm 17.9 16.2 8.5 54 4.8 - 7 - 4 - 1017.1 - 0.0
19/07:00pm 17.4 15.6 8.0 54 4.8 - 7 - 4 - 1016.8 1016.7 0.0
19/06:30pm 17.6 15.0 7.6 52 5.1 - 11 - 6 - 1016.4 - 0.0
19/06:00pm 17.8 14.4 7.5 51 5.2 - 15 - 8 - 1015.9 1015.8 0.0
19/05:30pm 18.2 14.3 7.3 49 5.5 - 17 - 9 - 1015.5 - 0.0
19/05:00pm 18.3 13.8 7.1 48 5.6 - 20 - 11 - 1015.2 1015.1 0.0
19/04:30pm 18.7 13.6 7.5 48 5.7 - 24 - 13 - 1015.1 - 0.0
19/04:00pm 19.1 14.4 7.8 48 5.8 - 22 - 12 - 1015.0 1014.9 0.0
19/03:30pm 20.8 15.4 8.1 44 6.6 - 26 - 14 - 1014.9 - 0.0
19/03:00pm 20.8 16.0 7.4 42 6.9 - 22 - 12 - 1014.9 1014.8 0.0
19/02:30pm 21.4 16.7 7.6 41 7.1 - 22 - 12 - 1014.9 - 0.0
19/02:00pm 22.6 18.5 8.7 41 7.4 - 20 - 11 - 1014.8 1014.7 0.0
19/01:30pm 22.0 18.0 8.9 43 7.0 - 20 - 11 - 1014.7 - 0.0
19/01:00pm 21.9 17.0 8.4 42 7.1 - 24 - 13 - 1014.9 1014.8 0.0
19/12:30pm 21.3 17.1 8.2 43 6.9 - 20 - 11 - 1015.4 - 0.0
19/12:00pm 21.7 18.8 9.6 46 6.5 - 15 - 8 - 1015.9 1015.8 0.0
19/11:30am 20.3 17.1 9.8 51 5.6 - 17 - 9 - 1016.1 - 0.0
19/11:00am 19.1 16.0 9.0 52 5.3 - 15 - 8 - 1016.4 1016.3 0.0
19/10:30am 19.4 16.1 9.6 53 5.2 - 17 - 9 - 1016.5 - 0.0
19/10:00am 19.2 16.1 10.2 56 4.8 - 17 - 9 - 1016.5 1016.4 0.0
19/09:30am 19.2 15.4 11.3 60 4.3 - 22 - 12 - 1016.5 - 0.0
19/09:00am 19.2 16.4 11.3 60 4.3 - 17 - 9 - 1016.5 1016.4 0.0
19/08:30am 19.0 17.0 11.6 62 4.1 - 13 - 7 - 1016.7 - 0.0
19/08:00am 18.1 16.8 12.5 70 3.1 - 11 - 6 - 1016.5 1016.4 0.0
19/07:30am 17.0 15.2 12.1 73 2.7 - 13 - 7 - 1016.2 - 0.0
19/07:00am 15.5 13.7 12.1 80 1.9 - 13 - 7 - 1015.8 1015.7 0.0
19/06:30am 15.1 13.5 11.7 80 1.8 - 11 - 6 - 1015.6 - 0.0
19/06:00am 15.3 13.7 11.5 78 2.0 - 11 - 6 - 1015.5 1015.4 0.0
19/05:30am 15.5 13.5 11.5 77 2.2 - 13 - 7 - 1015.2 - 0.0
19/05:00am 16.0 14.5 11.8 76 2.3 - 11 - 6 - 1015.1 1015.0 0.0
19/04:30am 16.1 14.8 11.3 73 2.6 - 9 - 5 - 1014.9 - 0.0
19/04:00am 16.4 14.3 11.3 72 2.8 - 13 - 7 - 1014.7 1014.6 0.0
19/03:30am 16.5 14.3 10.8 69 3.0 - 13 - 7 - 1014.6 - 0.0
19/03:00am 16.7 14.7 10.3 66 3.4 - 11 - 6 - 1014.4 1014.3 0.0
19/02:30am 17.0 15.1 10.4 65 3.5 - 11 - 6 - 1014.4 - 0.0
19/02:00am 17.0 14.8 9.4 61 4.0 - 11 - 6 - 1014.5 1014.4 0.0
19/01:30am 17.7 15.7 8.6 55 4.7 - 9 - 5 - 1014.5 - 0.0
19/01:00am 17.7 15.0 8.8 56 4.6 - 13 - 7 - 1014.6 1014.5 0.0
19/12:30am 18.0 15.6 8.6 54 4.9 - 11 - 6 - 1014.1 - 0.0
19/12:00am 18.4 16.4 8.7 53 5.0 - 9 - 5 - 1014.0 1013.9 0.0
 
Date/Time
EST
Temp
°C
App
Temp
°C
Dew
Point
Rel
Hum
%
Delta-T
°C
Wind Press
QNH
hPa
Press
MSL
hPa
Rain
since 9 am
mm
Dir
 
Spd
km/h
Gust
km/h
Spd
kts
Gust
kts
18/11:30pm 18.6 16.7 9.1 54 5.0 - 9 - 5 - 1013.8 - 0.0
18/11:00pm 19.0 17.4 8.9 52 5.3 - 7 - 4 - 1013.7 1013.6 0.0
18/10:30pm 19.0 17.3 9.8 55 4.9 - 9 - 5 - 1013.7 - 0.0
18/10:00pm 18.7 16.6 9.8 56 4.7 - 11 - 6 - 1013.7 1013.6 0.0
18/09:30pm 19.6 18.0 8.9 50 5.6 - 7 - 4 - 1014.0 - 0.0
18/09:00pm 19.9 18.0 9.2 50 5.7 - 9 - 5 - 1014.2 1014.1 0.0
18/08:30pm 20.3 18.4 8.9 48 6.0 - 9 - 5 - 1014.1 - 0.0
18/08:00pm 20.7 19.1 10.2 51 5.7 - 9 - 5 - 1014.0 1013.9 0.0
18/07:30pm 20.7 19.7 12.4 59 4.7 - 9 - 5 - 1013.8 - 0.0
18/07:00pm 20.8 19.4 9.7 49 6.0 - 7 - 4 - 1013.5 1013.4 0.0
18/06:30pm 20.8 20.0 9.7 49 6.0 - 4 - 2 - 1013.4 - 0.0
18/06:00pm 21.5 20.3 9.7 47 6.4 - 6 - 3 - 1013.1 1013.0 0.0
18/05:30pm 21.6 19.6 10.1 48 6.2 - 11 - 6 - 1012.8 - 0.0

Other Formats:

Comma delimited format used in spreadsheet applications
http://www.bom.gov.au/fwo/IDN60801/IDN60801.94768.axf

JavaScript Object Notation format (JSON) in row-major order
http://www.bom.gov.au/fwo/IDN60801/IDN60801.94768.json